Time;durP1;ratioP1;P1;durP2;ratioP2;P2;SDS_P1;SDS_P2;PMS_P1;PMS_P2;Temp;Humidity;BMP_temperature;BMP_pressure;BME280_temperature;BME280_humidity;BME280_pressure;Samples;Min_cycle;Max_cycle;Signal;HPM_P1;HPM_P2
2021/06/11 00:00:18;;;;;;;6.40;3.85;;;;;;;14.96;86.13;96514.13;5110747;58;20136;-80
2021/06/11 00:05:21;;;;;;;4.50;4.10;;;;;;;14.98;85.84;96510.84;5112349;58;20192;-79
2021/06/11 00:10:23;;;;;;;4.30;3.90;;;;;;;14.87;86.04;96513.50;5112083;58;20571;-80
2021/06/11 00:15:27;;;;;;;3.75;3.45;;;;;;;14.94;85.96;96507.50;5103466;58;20118;-80
2021/06/11 00:20:29;;;;;;;4.75;3.47;;;;;;;14.51;86.73;96503.66;5103549;58;20218;-80
2021/06/11 00:25:31;;;;;;;5.78;4.45;;;;;;;14.60;86.96;96509.09;5112182;58;20132;-80
2021/06/11 00:30:34;;;;;;;4.45;4.03;;;;;;;14.54;87.23;96505.44;5102248;58;20136;-80
2021/06/11 00:35:37;;;;;;;4.78;3.80;;;;;;;14.57;86.82;96503.69;5100785;58;20185;-80
2021/06/11 00:40:42;;;;;;;4.32;3.92;;;;;;;14.74;86.45;96507.50;5108263;58;20128;-80
2021/06/11 00:45:45;;;;;;;3.97;3.67;;;;;;;14.41;87.27;96502.22;5107620;58;20122;-80
2021/06/11 00:50:47;;;;;;;4.65;3.97;;;;;;;14.28;88.03;96504.53;5108539;58;20131;-79
2021/06/11 00:55:49;;;;;;;4.10;3.72;;;;;;;14.40;87.67;96497.91;5108131;58;20145;-80
2021/06/11 01:00:52;;;;;;;3.92;3.63;;;;;;;14.50;87.50;96498.53;5107926;58;20623;-79
2021/06/11 01:05:54;;;;;;;3.83;3.38;;;;;;;14.49;87.69;96500.59;5112887;58;20136;-79
2021/06/11 01:10:58;;;;;;;4.35;3.95;;;;;;;14.56;87.67;96483.50;5115339;58;20127;-80
2021/06/11 01:16:01;;;;;;;4.75;3.65;;;;;;;14.56;87.47;96486.28;5114343;58;20132;-80
2021/06/11 01:21:04;;;;;;;4.00;3.60;;;;;;;14.65;87.23;96493.72;5113746;58;20132;-79
2021/06/11 01:26:28;;;;;;;5.63;3.75;;;;;;;14.75;86.87;96486.75;5113140;58;20604;-79
2021/06/11 01:31:35;;;;;;;5.65;4.20;;;;;;;14.60;87.05;96477.72;5112889;58;20145;-79
2021/06/11 01:36:46;;;;;;;4.57;4.18;;;;;;;14.50;87.56;96476.31;5113066;58;20132;-80
2021/06/11 01:41:51;;;;;;;6.70;4.05;;;;;;;14.61;87.58;96471.66;5103613;58;20167;-80
2021/06/11 01:46:57;;;;;;;5.57;4.13;;;;;;;14.62;87.92;96473.22;5112665;58;20133;-79
2021/06/11 01:52:04;;;;;;;5.30;3.47;;;;;;;14.64;88.07;96464.38;5114089;57;20106;-79
2021/06/11 01:57:07;;;;;;;4.03;3.72;;;;;;;14.56;87.95;96463.25;5113511;57;20135;-79
2021/06/11 02:02:11;;;;;;;4.28;3.88;;;;;;;14.65;87.84;96455.56;5116072;57;20146;-79
2021/06/11 02:07:14;;;;;;;5.25;3.95;;;;;;;14.61;88.08;96465.34;5113664;57;20162;-79
2021/06/11 02:12:17;;;;;;;6.30;4.28;;;;;;;14.71;87.70;96459.16;5118658;57;20104;-79
2021/06/11 02:17:22;;;;;;;7.63;4.78;;;;;;;14.43;88.55;96455.22;5117475;57;20145;-79
2021/06/11 02:22:24;;;;;;;4.30;3.95;;;;;;;14.45;88.87;96463.09;5121332;57;20204;-79
2021/06/11 02:27:27;;;;;;;4.45;4.07;;;;;;;14.35;88.78;96451.34;5121693;57;20119;-79
2021/06/11 02:32:34;;;;;;;3.92;3.63;;;;;;;14.32;88.85;96460.63;5120114;57;20118;-78
2021/06/11 02:37:36;;;;;;;4.47;4.07;;;;;;;14.40;88.49;96456.22;5117571;57;20171;-79
2021/06/11 02:42:41;;;;;;;4.65;4.00;;;;;;;14.38;88.67;96466.28;5114552;57;20140;-79
2021/06/11 02:47:52;;;;;;;4.95;4.22;;;;;;;14.37;88.61;96451.63;5108259;57;20123;-79
2021/06/11 02:53:02;;;;;;;4.10;3.75;;;;;;;14.43;88.61;96465.59;5116286;57;20127;-79
2021/06/11 02:58:18;;;;;;;4.32;3.90;;;;;;;14.58;87.72;96469.88;5115943;57;20128;-79
2021/06/11 03:03:28;;;;;;;4.32;3.85;;;;;;;14.64;87.45;96475.50;5119234;57;20689;-79
2021/06/11 03:08:35;;;;;;;4.82;3.97;;;;;;;14.67;87.59;96480.09;5118794;57;20123;-79
2021/06/11 03:13:40;;;;;;;4.53;3.90;;;;;;;14.43;88.60;96477.47;5112303;57;20131;-80
2021/06/11 03:18:55;;;;;;;4.30;3.90;;;;;;;14.38;88.98;96481.69;5111119;57;20127;-79
2021/06/11 03:24:03;;;;;;;4.15;3.65;;;;;;;14.52;88.85;96482.91;5112723;57;20135;-78
2021/06/11 03:29:09;;;;;;;4.28;3.88;;;;;;;14.61;88.01;96488.34;5108805;57;20132;-79
2021/06/11 03:34:19;;;;;;;3.85;3.53;;;;;;;14.56;88.05;96486.28;5110064;58;20174;-79
2021/06/11 03:39:27;;;;;;;4.45;3.83;;;;;;;14.45;88.45;96488.13;5108438;57;20136;-79
2021/06/11 03:44:30;;;;;;;4.78;4.15;;;;;;;14.38;88.47;96487.25;5107640;58;20273;-79
2021/06/11 03:49:34;;;;;;;8.82;4.00;;;;;;;14.44;88.05;96494.94;5108153;58;20146;-79
2021/06/11 03:54:38;;;;;;;4.60;4.00;;;;;;;14.50;88.11;96487.41;5108650;58;20114;-79
2021/06/11 03:59:43;;;;;;;4.10;3.80;;;;;;;14.61;87.58;96488.34;5109775;58;20136;-79
2021/06/11 04:04:45;;;;;;;7.88;3.72;;;;;;;14.69;87.43;96499.84;5100639;58;20127;-79
2021/06/11 04:09:50;;;;;;;4.25;3.85;;;;;;;14.64;87.74;96492.94;5109062;58;20141;-79
2021/06/11 04:14:54;;;;;;;5.25;3.92;;;;;;;14.82;87.39;96497.47;5109664;58;20106;-79
2021/06/11 04:20:00;;;;;;;4.18;3.78;;;;;;;14.93;87.08;96501.19;5109378;58;20128;-79
2021/06/11 04:25:05;;;;;;;4.63;4.18;;;;;;;15.08;86.86;96501.13;5110436;58;20145;-79
2021/06/11 04:30:09;;;;;;;7.75;4.10;;;;;;;15.28;86.36;96512.25;5109489;58;20123;-79
2021/06/11 04:35:12;;;;;;;4.07;3.75;;;;;;;15.41;85.85;96509.84;5108534;58;20593;-79
2021/06/11 04:40:15;;;;;;;4.75;4.07;;;;;;;15.54;86.23;96515.84;5111990;58;20141;-78
2021/06/11 04:45:18;;;;;;;4.68;4.28;;;;;;;15.86;85.29;96515.91;5118940;58;20700;-78
2021/06/11 04:50:20;;;;;;;4.30;3.90;;;;;;;15.93;85.56;96524.59;5114296;58;20128;-79
2021/06/11 05:00:19;;;;;;;4.72;4.22;;;;;;;16.25;84.59;96525.38;5397310;54;20562;-81
2021/06/11 05:05:21;;;;;;;6.28;4.30;;;;;;;16.22;84.92;96526.34;5356956;55;20161;-79
2021/06/11 05:10:24;;;;;;;4.80;4.38;;;;;;;16.07;84.98;96528.53;5353135;55;20138;-80
2021/06/11 05:15:26;;;;;;;4.43;4.00;;;;;;;16.08;84.81;96539.16;5352112;55;20645;-80
2021/06/11 05:20:28;;;;;;;5.05;4.55;;;;;;;16.33;83.85;96532.03;5351815;55;20590;-81
2021/06/11 05:25:31;;;;;;;4.55;4.13;;;;;;;16.65;83.07;96536.34;5352355;55;20127;-79
2021/06/11 05:30:33;;;;;;;5.03;4.35;;;;;;;16.88;82.37;96538.03;5353234;55;20134;-80
2021/06/11 05:35:36;;;;;;;7.88;4.72;;;;;;;17.04;82.17;96533.78;5351400;55;20131;-79
2021/06/11 05:40:41;;;;;;;8.32;4.57;;;;;;;17.23;81.59;96536.94;5352973;55;20125;-80
2021/06/11 05:45:44;;;;;;;5.70;4.80;;;;;;;17.19;81.88;96543.50;5353505;55;20126;-79
2021/06/11 05:50:46;;;;;;;6.63;4.65;;;;;;;17.43;79.82;96531.94;5353092;55;20573;-79
2021/06/11 05:55:54;;;;;;;5.13;4.57;;;;;;;17.82;78.21;96543.28;5349924;55;20108;-77
2021/06/11 06:00:56;;;;;;;5.82;5.22;;;;;;;17.72;78.26;96536.38;5350680;55;20135;-78
2021/06/11 06:05:58;;;;;;;5.88;5.15;;;;;;;18.09;76.71;96541.78;5350664;55;20156;-79
2021/06/11 06:11:01;;;;;;;5.75;4.85;;;;;;;18.14;75.01;96550.16;5338570;55;20114;-80
2021/06/11 06:16:04;;;;;;;4.65;4.22;;;;;;;18.00;72.22;96551.19;5336456;55;20126;-80
2021/06/11 06:21:07;;;;;;;5.10;4.60;;;;;;;17.98;70.50;96544.56;5344600;55;20109;-79
2021/06/11 06:26:09;;;;;;;4.57;4.18;;;;;;;18.11;70.31;96542.03;5342446;55;20109;-80
2021/06/11 06:31:11;;;;;;;4.55;4.15;;;;;;;18.51;69.08;96545.13;5337116;55;20127;-80
2021/06/11 06:36:14;;;;;;;4.50;3.90;;;;;;;18.76;68.90;96551.72;5337758;55;20572;-79
2021/06/11 06:41:17;;;;;;;4.47;4.00;;;;;;;18.96;68.43;96539.47;5334169;55;20670;-80
2021/06/11 06:46:22;;;;;;;4.25;3.85;;;;;;;19.19;69.15;96554.94;5331172;55;20109;-80
2021/06/11 06:51:26;;;;;;;4.28;3.95;;;;;;;19.11;67.06;96542.75;5330214;55;20255;-78
2021/06/11 06:56:29;;;;;;;4.47;4.07;;;;;;;19.26;66.56;96558.00;5339688;55;20113;-78
2021/06/11 07:01:31;;;;;;;4.28;3.88;;;;;;;19.58;66.04;96547.19;5334135;55;20126;-79
2021/06/11 07:06:34;;;;;;;3.92;3.53;;;;;;;19.55;66.47;96548.22;5332051;55;20118;-80
2021/06/11 07:11:37;;;;;;;5.38;3.90;;;;;;;19.64;68.25;96559.13;5331128;55;20118;-80
2021/06/11 07:16:40;;;;;;;4.15;3.78;;;;;;;19.94;65.14;96557.19;5331135;55;20114;-79
2021/06/11 07:21:42;;;;;;;4.60;4.00;;;;;;;19.97;65.87;96555.38;5329364;55;20207;-78
2021/06/11 07:26:44;;;;;;;5.50;3.40;;;;;;;20.15;62.00;96554.00;5330611;55;20696;-78
2021/06/11 07:31:48;;;;;;;3.80;3.50;;;;;;;20.20;60.23;96567.22;5330837;55;20118;-79
2021/06/11 07:36:50;;;;;;;3.83;3.53;;;;;;;20.22;57.81;96561.91;5330212;55;20122;-76
2021/06/11 07:41:54;;;;;;;3.72;3.42;;;;;;;20.68;60.54;96556.94;5328362;55;20216;-79
2021/06/11 07:46:56;;;;;;;2.63;2.42;;;;;;;20.98;57.26;96559.72;5329911;55;20122;-77
2021/06/11 07:52:00;;;;;;;4.00;3.45;;;;;;;21.77;55.19;96561.13;5330299;55;20109;-80
2021/06/11 07:57:02;;;;;;;3.67;3.38;;;;;;;23.41;52.12;96563.91;5330300;55;20653;-75
2021/06/11 08:02:06;;;;;;;3.10;2.80;;;;;;;24.57;48.33;96555.00;5331334;55;20212;-77
2021/06/11 08:07:08;;;;;;;3.88;3.17;;;;;;;24.65;46.57;96561.47;5329751;55;20163;-80
2021/06/11 08:12:13;;;;;;;4.20;3.85;;;;;;;23.63;48.39;96554.25;5329014;55;20332;-79
2021/06/11 08:17:15;;;;;;;4.15;3.75;;;;;;;23.90;49.29;96550.09;5330387;55;20130;-81
2021/06/11 08:22:18;;;;;;;4.25;3.85;;;;;;;24.52;48.55;96553.06;5329904;55;20122;-79
2021/06/11 08:27:20;;;;;;;3.75;3.33;;;;;;;25.49;48.23;96562.94;5329961;55;20122;-79
2021/06/11 08:32:23;;;;;;;3.80;3.50;;;;;;;25.87;44.64;96552.56;5330236;55;20194;-79
2021/06/11 08:37:25;;;;;;;3.28;3.08;;;;;;;25.28;43.91;96554.50;5328515;55;20148;-78
2021/06/11 08:42:29;;;;;;;3.63;3.33;;;;;;;25.55;45.05;96555.81;5327530;55;20113;-79
2021/06/11 08:47:32;;;;;;;4.18;3.78;;;;;;;25.41;42.56;96556.44;5319782;55;20127;-78
2021/06/11 08:52:35;;;;;;;3.72;3.47;;;;;;;25.46;42.77;96562.00;5322966;55;20118;-78
2021/06/11 08:57:38;;;;;;;4.38;3.97;;;;;;;24.17;44.37;96557.22;5321316;55;20122;-79
2021/06/11 09:03:08;;;;;;;4.38;4.00;;;;;;;26.50;42.09;96565.09;5333785;55;20117;-78
2021/06/11 09:08:22;;;;;;;3.72;3.42;;;;;;;26.90;43.18;96566.13;5325137;55;20113;-79
2021/06/11 09:13:29;;;;;;;3.95;3.65;;;;;;;26.53;39.39;96566.06;5313458;55;20113;-78
2021/06/11 09:18:31;;;;;;;3.33;3.13;;;;;;;25.71;45.85;96564.38;5321307;55;20118;-80
2021/06/11 09:23:34;;;;;;;4.15;3.80;;;;;;;26.59;41.34;96570.22;5325181;55;20109;-78
2021/06/11 09:28:36;;;;;;;6.00;4.65;;;;;;;27.25;39.78;96567.25;5325951;55;20113;-79
2021/06/11 09:33:42;;;;;;;5.25;4.75;;;;;;;27.55;40.35;96567.22;5325725;55;20131;-79
2021/06/11 09:38:45;;;;;;;5.57;5.07;;;;;;;27.96;38.43;96562.38;5328900;55;20656;-80
2021/06/11 09:43:56;;;;;;;3.15;2.95;;;;;;;28.39;38.46;96564.88;5346150;55;20109;-77
2021/06/11 09:48:59;;;;;;;3.30;3.10;;;;;;;27.90;38.67;96562.59;5344261;55;20130;-78
2021/06/11 09:54:27;;;;;;;3.72;2.90;;;;;;;27.47;37.77;96548.72;5328121;55;20113;-77
2021/06/11 09:59:40;;;;;;;3.80;3.50;;;;;;;28.01;38.99;96562.22;5328346;55;20136;-78
2021/06/11 10:04:45;;;;;;;4.88;4.10;;;;;;;27.96;40.01;96563.16;5330510;55;20157;-78
2021/06/11 10:09:50;;;;;;;3.50;3.30;;;;;;;28.68;36.31;96562.44;5333418;55;20109;-79
2021/06/11 10:14:52;;;;;;;4.85;3.63;;;;;;;29.04;39.31;96557.06;5322188;55;20118;-82
2021/06/11 10:19:54;;;;;;;3.63;3.20;;;;;;;28.52;35.87;96558.19;5331975;55;20136;-79
2021/06/11 10:24:57;;;;;;;3.58;3.28;;;;;;;27.28;36.93;96556.84;5334158;55;20666;-81
2021/06/11 10:30:00;;;;;;;3.90;3.70;;;;;;;27.45;37.32;96554.19;5325815;55;20594;-79
2021/06/11 10:35:02;;;;;;;4.88;3.30;;;;;;;28.48;34.75;96544.34;5332088;55;20127;-79
2021/06/11 10:40:24;;;;;;;2.70;2.50;;;;;;;29.48;32.59;96549.50;5334364;55;20126;-79
2021/06/11 10:45:42;;;;;;;2.83;2.63;;;;;;;29.38;36.28;96545.78;5332943;55;20210;-80
2021/06/11 10:50:45;;;;;;;4.40;4.00;;;;;;;28.63;34.65;96540.69;5334444;55;20117;-81
2021/06/11 10:55:50;;;;;;;4.25;3.97;;;;;;;28.37;35.09;96539.09;5352020;55;20117;-79
2021/06/11 11:00:54;;;;;;;3.03;2.83;;;;;;;29.63;36.41;96535.09;5332329;55;20595;-79
2021/06/11 11:05:57;;;;;;;3.10;2.80;;;;;;;29.45;32.91;96538.50;5332672;55;20118;-81
2021/06/11 11:10:59;;;;;;;4.30;3.03;;;;;;;28.79;34.88;96525.03;5334173;55;20140;-79
2021/06/11 11:16:03;;;;;;;4.25;3.88;;;;;;;26.75;36.47;96520.00;5331935;55;20127;-79
2021/06/11 11:21:35;;;;;;;3.63;3.40;;;;;;;28.96;34.63;96520.16;5328155;55;20127;-77
2021/06/11 11:26:49;;;;;;;3.05;2.85;;;;;;;29.89;32.54;96510.13;5323052;55;20126;-78
2021/06/11 11:31:51;;;;;;;3.10;2.90;;;;;;;29.77;33.78;96513.50;5332525;55;20113;-77
2021/06/11 11:36:54;;;;;;;2.70;2.60;;;;;;;31.34;34.20;96507.44;5320424;55;20210;-79
2021/06/11 11:41:56;;;;;;;2.95;2.75;;;;;;;30.25;32.95;96511.00;5336516;55;20201;-78
2021/06/11 11:47:00;;;;;;;2.80;2.60;;;;;;;30.35;34.20;96508.97;5327627;55;20117;-78
2021/06/11 11:52:03;;;;;;;2.80;2.60;;;;;;;30.46;35.78;96493.44;5328221;55;20644;-78
2021/06/11 11:57:06;;;;;;;2.97;2.70;;;;;;;30.24;33.62;96491.63;5326690;55;20572;-81
2021/06/11 12:02:09;;;;;;;2.88;2.67;;;;;;;29.42;34.14;96496.97;5328954;55;20434;-79
2021/06/11 12:07:11;;;;;;;3.17;2.83;;;;;;;28.75;34.33;96482.00;5328398;55;20122;-80
2021/06/11 12:12:14;;;;;;;5.65;3.00;;;;;;;29.24;36.63;96487.69;5321647;55;20667;-79
2021/06/11 12:17:16;;;;;;;2.78;2.40;;;;;;;30.37;35.32;96469.22;5318985;55;20162;-81
2021/06/11 12:22:19;;;;;;;3.03;2.38;;;;;;;29.37;35.03;96470.25;5320049;55;20147;-79
2021/06/11 12:27:21;;;;;;;2.25;2.15;;;;;;;31.28;31.78;96456.31;5333962;55;20122;-80
2021/06/11 12:32:24;;;;;;;2.67;2.58;;;;;;;30.42;32.83;96456.78;5335831;55;20131;-81
2021/06/11 12:37:26;;;;;;;2.95;2.75;;;;;;;25.40;38.63;96448.16;5330254;55;20135;-81
2021/06/11 12:42:35;;;;;;;2.65;2.50;;;;;;;26.42;40.24;96445.28;5327339;55;20109;-80
2021/06/11 12:47:39;;;;;;;2.90;2.70;;;;;;;28.59;34.69;96438.72;5328243;55;20125;-79
2021/06/11 12:52:41;;;;;;;2.78;2.65;;;;;;;26.94;36.00;96430.34;5327010;55;20132;-80
2021/06/11 12:57:44;;;;;;;2.67;2.50;;;;;;;28.28;37.99;96426.78;5327861;55;20122;-78
2021/06/11 13:02:46;;;;;;;2.90;2.70;;;;;;;28.59;35.81;96418.81;5324208;55;20122;-81
2021/06/11 13:07:49;;;;;;;3.20;2.90;;;;;;;27.15;39.56;96418.00;5327950;55;20109;-79
2021/06/11 13:12:52;;;;;;;2.90;2.70;;;;;;;27.71;36.89;96412.53;5340089;55;20114;-79
2021/06/11 13:17:56;;;;;;;2.53;2.42;;;;;;;28.31;42.06;96414.28;5321734;55;20109;-79
2021/06/11 13:23:00;;;;;;;2.70;2.60;;;;;;;27.93;34.65;96410.16;5333917;55;20159;-81
2021/06/11 13:28:03;;;;;;;2.53;2.33;;;;;;;30.18;33.18;96414.16;5325137;55;20204;-78
2021/06/11 13:33:06;;;;;;;2.38;2.10;;;;;;;29.77;31.96;96416.63;5326722;55;20140;-81
2021/06/11 13:38:08;;;;;;;2.63;2.15;;;;;;;29.79;37.44;96408.25;5325733;55;20692;-78
2021/06/11 13:43:11;;;;;;;2.40;2.30;;;;;;;27.16;36.41;96411.75;5323234;55;20197;-76
2021/06/11 13:48:14;;;;;;;2.55;2.35;;;;;;;27.39;36.07;96417.38;5332278;55;20571;-80
2021/06/11 13:53:16;;;;;;;1.98;1.88;;;;;;;27.43;32.41;96420.63;5337656;55;20127;-79
2021/06/11 13:58:19;;;;;;;2.00;1.90;;;;;;;28.60;32.93;96411.03;5332873;55;20114;-79
2021/06/11 14:03:21;;;;;;;2.88;2.58;;;;;;;28.71;34.11;96407.72;5332411;55;20109;-78
2021/06/11 14:08:24;;;;;;;2.42;2.33;;;;;;;26.99;34.62;96415.22;5333371;55;20104;-79
2021/06/11 14:13:28;;;;;;;2.60;2.50;;;;;;;27.72;35.50;96404.78;5332508;55;20564;-79
2021/06/11 14:18:30;;;;;;;2.72;2.53;;;;;;;28.07;36.30;96397.94;5332239;55;20132;-78
2021/06/11 14:23:33;;;;;;;2.33;2.10;;;;;;;28.82;34.21;96393.75;5334028;55;20136;-83
2021/06/11 14:28:36;;;;;;;2.38;2.13;;;;;;;29.30;33.82;96390.63;5332595;55;20639;-79
2021/06/11 14:33:39;;;;;;;2.60;2.40;;;;;;;30.65;30.96;96398.59;5333100;55;20113;-82
2021/06/11 14:38:42;;;;;;;2.50;2.30;;;;;;;28.87;33.21;96389.16;5332661;55;20127;-79
2021/06/11 14:43:44;;;;;;;2.50;2.30;;;;;;;30.10;32.12;96387.88;5331097;55;20109;-78
2021/06/11 14:48:46;;;;;;;2.55;2.00;;;;;;;30.07;31.60;96391.91;5331067;55;20113;-80
2021/06/11 14:53:49;;;;;;;2.50;2.38;;;;;;;29.59;30.78;96383.81;5333584;55;20118;-80
2021/06/11 14:58:51;;;;;;;3.13;2.58;;;;;;;29.71;31.76;96384.78;5332584;55;20126;-80
2021/06/11 15:03:54;;;;;;;2.25;2.15;;;;;;;29.52;32.45;96381.81;5333730;55;20113;-82
2021/06/11 15:08:56;;;;;;;2.58;2.38;;;;;;;28.88;33.97;96371.50;5323902;55;20122;-81
2021/06/11 15:13:59;;;;;;;2.30;2.20;;;;;;;26.99;35.89;96375.50;5333103;55;20113;-83
2021/06/11 15:19:03;;;;;;;2.55;2.38;;;;;;;26.58;38.23;96361.00;5331339;55;20118;-82
2021/06/11 15:24:06;;;;;;;2.72;2.63;;;;;;;25.87;38.82;96368.50;5323625;55;20595;-82
2021/06/11 15:29:08;;;;;;;2.83;2.63;;;;;;;24.64;41.54;96367.03;5334827;55;20113;-80
2021/06/11 15:34:11;;;;;;;5.80;2.53;;;;;;;26.78;39.42;96363.66;5334648;55;20117;-79
2021/06/11 15:39:14;;;;;;;2.85;2.33;;;;;;;26.48;37.33;96366.50;5327674;55;20149;-78
2021/06/11 15:44:20;;;;;;;2.53;2.33;;;;;;;25.57;40.74;96360.75;5316370;55;20122;-79
2021/06/11 15:49:22;;;;;;;2.40;2.28;;;;;;;25.19;41.08;96362.66;5327874;55;20144;-78
2021/06/11 15:54:25;;;;;;;3.03;2.75;;;;;;;25.12;40.90;96359.78;5328796;55;20222;-78
2021/06/11 15:59:27;;;;;;;2.67;2.47;;;;;;;25.87;40.35;96354.34;5329396;55;20702;-79
2021/06/11 16:04:30;;;;;;;3.33;3.03;;;;;;;25.78;40.35;96357.00;5332992;55;20114;-80
2021/06/11 16:09:32;;;;;;;3.25;3.05;;;;;;;25.74;40.15;96357.34;5342346;55;20104;-80
2021/06/11 16:14:36;;;;;;;3.10;2.90;;;;;;;25.74;39.73;96359.47;5331171;55;20216;-78
2021/06/11 16:19:38;;;;;;;4.53;3.05;;;;;;;26.17;38.85;96345.91;5330180;55;20131;-78
2021/06/11 16:24:41;;;;;;;2.47;2.30;;;;;;;26.03;39.04;96352.31;5319949;55;20234;-79
2021/06/11 16:29:44;;;;;;;2.97;2.78;;;;;;;26.11;39.17;96361.59;5329802;55;20126;-79
2021/06/11 16:34:46;;;;;;;2.40;2.20;;;;;;;26.20;38.31;96358.97;5320170;55;20127;-78
2021/06/11 16:39:49;;;;;;;2.70;2.50;;;;;;;25.77;37.59;96355.47;5328312;55;20136;-80
2021/06/11 16:44:52;;;;;;;3.15;2.53;;;;;;;25.93;38.01;96354.19;5327258;55;20113;-80
2021/06/11 16:50:12;;;;;;;2.67;2.50;;;;;;;25.57;37.84;96355.06;5326911;55;20134;-79
2021/06/11 16:55:15;;;;;;;3.38;2.70;;;;;;;25.19;39.01;96365.47;5322146;55;20105;-78
2021/06/11 17:00:19;;;;;;;2.60;2.40;;;;;;;25.26;39.44;96372.47;5326273;55;20132;-75
2021/06/11 17:05:22;;;;;;;2.85;2.67;;;;;;;25.54;40.32;96361.09;5325076;55;20166;-77
2021/06/11 17:10:26;;;;;;;3.15;2.95;;;;;;;25.55;40.59;96368.28;5320595;55;20152;-78
2021/06/11 17:15:29;;;;;;;2.90;2.70;;;;;;;25.28;41.67;96372.69;5326101;55;20113;-78
2021/06/11 17:20:32;;;;;;;3.10;2.90;;;;;;;25.22;42.78;96372.06;5327992;55;20126;-78
2021/06/11 17:25:38;;;;;;;3.38;3.08;;;;;;;24.82;43.15;96377.34;5322973;55;20113;-79
2021/06/11 17:30:40;;;;;;;3.17;2.78;;;;;;;25.01;43.08;96382.72;5310646;55;20144;-78
2021/06/11 17:35:43;;;;;;;3.40;3.20;;;;;;;24.96;42.07;96384.41;5314211;55;20125;-76
2021/06/11 17:40:46;;;;;;;2.78;2.58;;;;;;;25.74;41.42;96380.00;5322537;55;20118;-79
2021/06/11 17:45:52;;;;;;;3.05;2.85;;;;;;;24.95;42.81;96388.53;5327166;55;20674;-77
2021/06/11 17:50:56;;;;;;;3.30;3.10;;;;;;;25.35;42.74;96395.31;5326375;55;20180;-79
2021/06/11 17:56:00;;;;;;;3.13;2.92;;;;;;;25.20;42.42;96391.69;5327945;55;20113;-76
2021/06/11 18:01:05;;;;;;;3.03;2.83;;;;;;;25.29;42.92;96385.50;5333676;55;20118;-76
2021/06/11 18:22:45;;;;;;;3.20;3.00;;;;;;;23.62;46.80;96394.72;6138156;45;20190;-76
2021/06/11 18:27:47;;;;;;;3.58;3.28;;;;;;;23.56;47.64;96391.28;5199099;57;20136;-76
2021/06/11 18:32:50;;;;;;;4.97;3.28;;;;;;;23.52;47.96;96394.44;5191774;56;20245;-78
2021/06/11 18:38:04;;;;;;;2.92;2.72;;;;;;;23.38;48.01;96390.13;5199680;57;20234;-76
2021/06/11 18:43:17;;;;;;;3.30;3.00;;;;;;;23.06;48.20;96386.72;5187335;57;20647;-78
2021/06/11 18:53:32;;;;;;;3.00;2.80;;;;;;;22.81;52.91;96403.09;5193880;56;20114;-76
2021/06/11 18:58:41;;;;;;;3.58;3.35;;;;;;;22.42;59.09;96403.03;5190543;57;20710;-77
2021/06/11 19:03:43;;;;;;;3.63;3.33;;;;;;;22.04;61.60;96410.88;5193236;56;20218;-77
2021/06/11 19:08:45;;;;;;;3.40;3.10;;;;;;;21.30;62.79;96408.13;5193832;56;20193;-76
2021/06/11 19:14:01;;;;;;;5.07;3.20;;;;;;;20.70;63.81;96422.38;5203353;56;20201;-77
2021/06/11 19:19:06;;;;;;;3.05;2.83;;;;;;;20.40;65.43;96423.72;5191630;57;20556;-76
2021/06/11 19:24:20;;;;;;;3.40;3.20;;;;;;;20.18;66.06;96424.63;5200981;57;20202;-78
2021/06/11 19:29:28;;;;;;;3.78;3.47;;;;;;;19.98;67.07;96433.50;5178018;57;20648;-78
2021/06/11 19:34:31;;;;;;;3.90;3.03;;;;;;;19.67;68.58;96442.38;5184892;57;20804;-77
2021/06/11 19:39:41;;;;;;;4.03;3.72;;;;;;;19.59;68.81;96447.78;5185222;57;20233;-77
2021/06/11 19:45:05;;;;;;;6.03;3.67;;;;;;;19.41;69.44;96437.19;5184591;57;20242;-77
2021/06/11 19:50:11;;;;;;;6.55;3.40;;;;;;;19.27;70.86;96450.22;5195973;57;20149;-78
2021/06/11 19:55:34;;;;;;;4.15;3.80;;;;;;;18.97;73.27;96451.38;5203265;57;20209;-78
2021/06/11 20:00:37;;;;;;;3.72;3.42;;;;;;;18.89;73.43;96456.75;5200888;57;20141;-78
2021/06/11 20:05:40;;;;;;;7.15;4.00;;;;;;;18.69;74.58;96467.50;5193704;57;20114;-77
2021/06/11 20:10:43;;;;;;;7.78;4.10;;;;;;;18.67;75.04;96465.22;5192579;57;20114;-77
2021/06/11 20:15:45;;;;;;;4.30;3.90;;;;;;;18.84;72.52;96476.38;5201857;56;20128;-78
2021/06/11 20:20:48;;;;;;;4.63;3.95;;;;;;;18.64;74.49;96474.63;5204105;57;20115;-78
2021/06/11 20:25:51;;;;;;;4.05;3.55;;;;;;;18.39;75.14;96473.63;5201893;57;20123;-77
2021/06/11 20:30:53;;;;;;;4.25;3.95;;;;;;;17.93;75.84;96456.63;5180843;56;20636;-74
2021/06/11 20:35:56;;;;;;;4.75;4.35;;;;;;;17.94;76.27;96463.72;5196739;56;20105;-76
2021/06/11 20:41:00;;;;;;;4.00;3.53;;;;;;;18.00;75.38;96470.09;5188435;57;20128;-75
2021/06/11 20:46:03;;;;;;;4.05;3.65;;;;;;;17.88;76.76;96462.97;5179997;56;20226;-75
2021/06/11 20:51:06;;;;;;;4.65;4.25;;;;;;;17.66;77.17;96460.16;5197314;56;20681;-75
2021/06/11 20:56:28;;;;;;;4.43;4.13;;;;;;;17.64;76.38;96459.91;5197837;56;20123;-76
2021/06/11 21:01:30;;;;;;;4.53;4.03;;;;;;;17.58;77.56;96470.28;5199130;56;20280;-75
2021/06/11 21:06:35;;;;;;;6.75;4.20;;;;;;;17.76;75.98;96464.22;5183177;56;20127;-75
2021/06/11 21:11:38;;;;;;;4.45;4.00;;;;;;;17.59;77.25;96455.06;5178089;57;20124;-75
2021/06/11 21:16:40;;;;;;;4.70;4.30;;;;;;;17.41;78.00;96450.66;5179316;57;20106;-75
2021/06/11 21:21:45;;;;;;;4.90;4.47;;;;;;;17.34;78.65;96464.34;5191059;56;20180;-75
2021/06/11 21:26:47;;;;;;;4.97;4.50;;;;;;;17.20;79.18;96480.81;5201440;56;20109;-75
2021/06/11 21:31:50;;;;;;;4.70;4.32;;;;;;;17.14;79.33;96462.53;5201084;56;20206;-75
2021/06/11 21:36:52;;;;;;;5.20;4.80;;;;;;;17.03;79.39;96477.19;5205863;56;20109;-75
2021/06/11 21:41:55;;;;;;;4.55;4.10;;;;;;;16.87;79.72;96489.03;5211081;56;20140;-75
2021/06/11 21:46:57;;;;;;;5.32;4.82;;;;;;;16.99;78.92;96482.25;5221928;56;20122;-75
2021/06/11 21:52:00;;;;;;;4.65;4.25;;;;;;;16.85;79.40;96488.78;5221775;56;20682;-75
2021/06/11 21:57:04;;;;;;;5.63;4.47;;;;;;;16.74;80.17;96483.13;5222372;56;20136;-75
2021/06/11 22:02:07;;;;;;;5.78;4.57;;;;;;;16.51;81.28;96484.25;5210555;56;20127;-75
2021/06/11 22:07:09;;;;;;;4.90;4.45;;;;;;;16.50;81.47;96491.09;5203356;56;20115;-74
2021/06/11 22:12:12;;;;;;;4.70;4.30;;;;;;;16.40;81.47;96489.72;5208435;56;20128;-75
2021/06/11 22:17:14;;;;;;;4.97;4.32;;;;;;;16.34;81.14;96488.94;5206273;56;20119;-75
2021/06/11 22:22:16;;;;;;;5.47;3.85;;;;;;;16.34;81.17;96498.09;5198092;56;20664;-75
2021/06/11 22:27:21;;;;;;;6.40;4.55;;;;;;;16.20;81.63;96489.84;5202189;57;20111;-76
2021/06/11 22:32:23;;;;;;;4.47;4.07;;;;;;;15.97;82.60;96500.03;5201886;56;20298;-76
2021/06/11 22:37:27;;;;;;;4.95;4.43;;;;;;;15.92;83.05;96495.19;5201948;57;20663;-75
2021/06/11 22:42:29;;;;;;;5.00;4.57;;;;;;;15.92;83.46;96500.00;5201899;56;20132;-76
2021/06/11 22:47:32;;;;;;;8.05;5.32;;;;;;;15.87;83.83;96493.13;5193268;57;20110;-76
2021/06/11 22:52:35;;;;;;;5.95;5.15;;;;;;;15.82;84.06;96498.63;5201414;56;20146;-76
2021/06/11 22:57:38;;;;;;;6.28;5.68;;;;;;;15.81;83.25;96492.28;5201567;57;20137;-76
2021/06/11 23:02:40;;;;;;;6.95;5.60;;;;;;;15.88;82.46;96491.09;5201428;56;20601;-76
2021/06/11 23:07:42;;;;;;;5.43;4.93;;;;;;;15.83;82.53;96486.25;5201893;57;20123;-76
2021/06/11 23:12:45;;;;;;;6.88;5.35;;;;;;;15.72;82.79;96498.81;5201406;56;21014;-76
2021/06/11 23:17:48;;;;;;;8.02;5.95;;;;;;;15.52;82.93;96490.50;5201448;57;20127;-76
2021/06/11 23:22:50;;;;;;;8.02;5.78;;;;;;;15.39;83.87;96494.88;5201363;56;20127;-76
2021/06/11 23:27:53;;;;;;;7.72;5.47;;;;;;;15.43;83.71;96501.00;5201254;57;20201;-76
2021/06/11 23:32:57;;;;;;;5.57;5.07;;;;;;;15.41;83.54;96498.72;5191666;56;20206;-76
2021/06/11 23:37:59;;;;;;;8.38;5.88;;;;;;;15.44;83.05;96499.78;5201330;57;20114;-76
2021/06/11 23:43:02;;;;;;;6.03;5.43;;;;;;;15.40;83.08;96494.38;5200548;56;20123;-76
2021/06/11 23:48:04;;;;;;;7.13;5.55;;;;;;;15.32;83.03;96492.53;5201111;57;20132;-76
2021/06/11 23:53:07;;;;;;;5.72;5.22;;;;;;;15.33;83.41;96494.84;5192138;56;20215;-76
2021/06/11 23:58:10;;;;;;;5.57;5.07;;;;;;;15.27;83.55;96487.66;5201012;57;20713;-76
